createdAt,value
2023-04-19T00:00:14.774Z,100628.56
2023-04-19T00:03:03.527Z,100625.48
2023-04-19T00:05:32.128Z,100625.19
2023-04-19T00:08:00.190Z,100621.66
2023-04-19T00:10:28.123Z,100620.56
2023-04-19T00:12:56.153Z,100621.65
2023-04-19T00:15:24.190Z,100617.05
2023-04-19T00:17:52.153Z,100612.62
2023-04-19T00:20:22.150Z,100607.05
2023-04-19T00:22:50.354Z,100600.12
2023-04-19T00:25:18.197Z,100598.15
2023-04-19T00:27:46.130Z,100590.92
2023-04-19T00:30:14.672Z,100584.54
2023-04-19T00:32:42.681Z,100586.48
2023-04-19T00:35:11.164Z,100590.60
2023-04-19T00:37:38.983Z,100586.39
2023-04-19T00:40:07.886Z,100587.30
2023-04-19T00:42:38.010Z,100590.88
2023-04-19T00:45:07.292Z,100592.40
2023-04-19T00:47:36.598Z,100587.89
2023-04-19T00:50:06.156Z,100589.72
2023-04-19T00:52:34.777Z,100588.50
2023-04-19T00:55:03.077Z,100590.82
2023-04-19T00:57:31.579Z,100587.14
2023-04-19T00:59:59.728Z,100588.73
2023-04-19T01:02:28.766Z,100583.27
2023-04-19T01:04:57.857Z,100574.14
2023-04-19T01:07:25.984Z,100572.95
2023-04-19T01:09:54.037Z,100572.71
2023-04-19T01:12:23.339Z,100567.35
2023-04-19T01:14:51.329Z,100563.98
2023-04-19T01:17:21.239Z,100560.59
2023-04-19T01:19:49.071Z,100555.93
2023-04-19T01:22:19.682Z,100552.33
2023-04-19T01:24:47.704Z,100554.16
2023-04-19T01:27:17.612Z,100553.70
2023-04-19T01:29:46.188Z,100557.11
2023-04-19T01:32:13.987Z,100551.36
2023-04-19T01:34:43.030Z,100555.13
2023-04-19T01:37:11.000Z,100556.67
2023-04-19T01:39:38.793Z,100552.52
2023-04-19T01:42:08.678Z,100548.51
2023-04-19T01:44:37.857Z,100549.83
2023-04-19T01:47:06.039Z,100549.58
2023-04-19T01:49:34.136Z,100546.41
2023-04-19T01:52:02.044Z,100546.43
2023-04-19T01:54:29.968Z,100544.35
2023-04-19T01:56:58.661Z,100544.16
2023-04-19T01:59:26.758Z,100540.91
2023-04-19T02:01:54.622Z,100544.54
2023-04-19T02:04:22.588Z,100540.73
2023-04-19T02:06:50.551Z,100541.27
2023-04-19T02:09:18.391Z,100536.60
2023-04-19T02:11:47.144Z,100538.48
2023-04-19T02:14:15.331Z,100541.39
2023-04-19T02:16:43.565Z,100541.42
2023-04-19T02:19:11.699Z,100535.31
2023-04-19T02:21:39.986Z,100536.74
2023-04-19T02:24:08.270Z,100533.52
2023-04-19T02:26:36.635Z,100535.52
2023-04-19T02:29:07.142Z,100540.05
2023-04-19T02:31:36.603Z,100542.14
2023-04-19T02:34:04.523Z,100541.11
2023-04-19T02:36:34.537Z,100540.61
2023-04-19T02:39:05.723Z,100538.34
2023-04-19T02:41:33.646Z,100531.91
2023-04-19T02:44:02.881Z,100532.43
2023-04-19T02:46:31.075Z,100533.21
2023-04-19T02:49:01.396Z,100536.63
2023-04-19T02:51:29.741Z,100533.44
2023-04-19T02:53:58.425Z,100532.30
2023-04-19T02:56:26.394Z,100529.91
2023-04-19T02:58:55.390Z,100523.55
2023-04-19T03:01:23.529Z,100524.63
2023-04-19T03:03:51.889Z,100523.27
2023-04-19T03:06:20.698Z,100516.06
2023-04-19T03:08:49.022Z,100514.59
2023-04-19T03:11:18.400Z,100512.41
2023-04-19T03:13:47.907Z,100511.17
2023-04-19T03:16:16.472Z,100510.76
2023-04-19T03:18:45.820Z,100504.19
2023-04-19T03:21:15.421Z,100500.61
2023-04-19T03:23:50.380Z,100496.52
2023-04-19T03:26:19.211Z,100496.29
2023-04-19T03:28:48.679Z,100496.98
2023-04-19T03:31:42.648Z,100490.23
2023-04-19T03:34:12.983Z,100487.50
2023-04-19T03:36:43.655Z,100484.33
2023-04-19T03:39:11.930Z,100481.27
2023-04-19T03:41:42.220Z,100475.71
2023-04-19T03:44:20.884Z,100473.79
2023-04-19T03:46:49.075Z,100476.48
2023-04-19T03:49:20.535Z,100468.36
2023-04-19T03:51:52.887Z,100464.36
2023-04-19T03:54:21.184Z,100465.40
2023-04-19T03:56:49.188Z,100463.77
2023-04-19T03:59:17.126Z,100461.70
2023-04-19T04:01:46.342Z,100458.13
2023-04-19T04:04:14.665Z,100461.30
2023-04-19T04:06:43.037Z,100462.85
2023-04-19T04:09:11.201Z,100462.89
2023-04-19T04:11:39.063Z,100463.39
2023-04-19T04:14:07.471Z,100461.45
2023-04-19T04:16:37.811Z,100458.23
2023-04-19T04:19:06.656Z,100461.20
2023-04-19T04:21:36.161Z,100461.98
2023-04-19T04:24:07.975Z,100465.45
2023-04-19T04:26:45.919Z,100462.40
2023-04-19T04:29:29.519Z,100459.50
2023-04-19T04:31:59.040Z,100458.87
2023-04-19T04:34:29.930Z,100455.80
2023-04-19T04:37:04.851Z,100452.74
2023-04-19T04:39:39.057Z,100451.20
2023-04-19T04:42:10.334Z,100448.98
2023-04-19T04:44:39.297Z,100445.23
2023-04-19T04:47:07.616Z,100447.10
2023-04-19T04:49:40.556Z,100445.32
2023-04-19T04:52:09.788Z,100440.52
2023-04-19T04:54:44.144Z,100439.44
2023-04-19T04:57:20.398Z,100433.79
2023-04-19T04:59:48.729Z,100434.75
2023-04-19T05:02:18.921Z,100434.23
2023-04-19T05:04:47.114Z,100432.97
2023-04-19T05:07:15.208Z,100426.69
2023-04-19T05:09:43.816Z,100421.68
2023-04-19T05:12:13.514Z,100422.08
2023-04-19T05:14:41.838Z,100422.54
2023-04-19T05:17:09.682Z,100419.34
2023-04-19T05:19:37.844Z,100417.77
2023-04-19T05:22:07.588Z,100419.42
2023-04-19T05:24:36.743Z,100416.64
2023-04-19T05:27:04.716Z,100416.27
2023-04-19T05:29:32.708Z,100415.52
2023-04-19T05:32:00.816Z,100415.20
2023-04-19T05:34:31.792Z,100412.52
2023-04-19T05:37:00.839Z,100416.64
2023-04-19T05:39:28.763Z,100413.06
2023-04-19T05:41:56.687Z,100414.24
2023-04-19T05:44:24.766Z,100414.75
2023-04-19T05:46:52.524Z,100412.91
2023-04-19T05:49:32.135Z,100413.72
2023-04-19T05:52:09.687Z,100414.33
2023-04-19T05:54:45.196Z,100412.17
2023-04-19T05:57:13.578Z,100414.20
2023-04-19T05:59:41.466Z,100416.42
2023-04-19T06:02:10.933Z,100416.13
2023-04-19T06:04:39.204Z,100417.31
2023-04-19T06:07:17.440Z,100417.31
2023-04-19T06:09:55.159Z,100414.05
2023-04-19T06:12:22.991Z,100414.52
2023-04-19T06:14:51.327Z,100413.21
2023-04-19T06:17:24.755Z,100413.01
2023-04-19T06:19:53.255Z,100415.82
2023-04-19T06:22:21.636Z,100412.63
2023-04-19T06:24:49.739Z,100409.46
2023-04-19T06:27:17.865Z,100410.11
2023-04-19T06:29:45.812Z,100409.50
2023-04-19T06:32:13.819Z,100410.87
2023-04-19T06:34:41.689Z,100411.66
2023-04-19T06:37:09.491Z,100408.69
2023-04-19T06:39:37.504Z,100411.63
2023-04-19T06:42:05.780Z,100408.86
2023-04-19T06:44:34.538Z,100407.57
2023-04-19T06:47:02.691Z,100403.30
2023-04-19T06:49:30.624Z,100404.54
2023-04-19T06:51:58.603Z,100404.79
2023-04-19T06:54:26.438Z,100404.59
2023-04-19T06:56:56.541Z,100403.30
2023-04-19T06:59:28.457Z,100406.83
2023-04-19T07:01:58.388Z,100409.96
2023-04-19T07:04:27.148Z,100410.12
2023-04-19T07:06:55.132Z,100412.30
2023-04-19T07:09:22.959Z,100411.49
2023-04-19T07:11:51.621Z,100408.02
2023-04-19T07:14:19.629Z,100408.35
2023-04-19T07:16:47.887Z,100408.86
2023-04-19T07:19:16.086Z,100408.02
2023-04-19T07:21:43.925Z,100405.47
2023-04-19T07:24:11.995Z,100404.73
2023-04-19T07:26:39.904Z,100405.09
2023-04-19T07:29:08.596Z,100405.15
2023-04-19T07:31:37.135Z,100402.16
2023-04-19T07:34:05.045Z,100404.86
2023-04-19T07:36:35.023Z,100407.55
2023-04-19T07:39:02.942Z,100405.91
2023-04-19T07:41:32.586Z,100403.94
2023-04-19T07:44:00.452Z,100402.02
2023-04-19T07:46:28.304Z,100399.70
2023-04-19T07:48:56.281Z,100401.91
2023-04-19T07:51:24.969Z,100402.95
2023-04-19T07:53:52.778Z,100401.20
2023-04-19T07:56:22.960Z,100405.89
2023-04-19T07:59:04.164Z,100404.33
2023-04-19T08:01:35.792Z,100405.72
2023-04-19T08:04:04.913Z,100402.48
2023-04-19T08:06:33.231Z,100401.79
2023-04-19T08:09:00.996Z,100400.64
2023-04-19T08:11:28.898Z,100399.41
2023-04-19T08:14:06.774Z,100401.70
2023-04-19T08:19:16.053Z,100397.38
2023-04-19T08:21:43.819Z,100396.73
2023-04-19T08:24:11.889Z,100402.27
2023-04-19T08:26:39.817Z,100398.86
2023-04-19T08:29:07.647Z,100401.27
2023-04-19T08:31:35.878Z,100404.20
2023-04-19T08:34:04.092Z,100408.34
2023-04-19T08:36:40.959Z,100409.33
2023-04-19T08:39:24.670Z,100408.26
2023-04-19T08:42:18.440Z,100408.67
2023-04-19T08:45:23.448Z,100411.02
2023-04-19T08:47:58.764Z,100415.02
2023-04-19T08:50:35.459Z,100415.96
2023-04-19T08:53:24.078Z,100419.77
2023-04-19T08:56:12.816Z,100418.05
2023-04-19T08:59:03.979Z,100413.52
2023-04-19T09:01:36.039Z,100414.77
2023-04-19T09:04:17.184Z,100412.46
2023-04-19T09:06:49.291Z,100408.48
2023-04-19T09:11:54.354Z,100411.80
2023-04-19T09:14:23.345Z,100406.69
2023-04-19T09:16:52.477Z,100401.80
2023-04-19T09:19:24.841Z,100409.86
2023-04-19T09:21:55.096Z,100410.02
2023-04-19T09:27:13.739Z,100406.91
2023-04-19T09:29:41.878Z,100405.86
2023-04-19T09:32:11.084Z,100404.06
2023-04-19T09:34:52.373Z,100407.96
2023-04-19T09:39:56.326Z,100408.64
2023-04-19T09:42:47.214Z,100410.41
2023-04-19T09:45:29.121Z,100414.61
2023-04-19T09:48:04.456Z,100415.63
2023-04-19T09:50:34.017Z,100416.49
2023-04-19T09:53:11.270Z,100414.13
2023-04-19T09:55:52.708Z,100414.52
2023-04-19T09:58:34.333Z,100411.20
2023-04-19T10:01:14.836Z,100412.58
2023-04-19T10:03:46.694Z,100414.86
2023-04-19T10:08:52.233Z,100413.86
2023-04-19T10:11:23.008Z,100415.22
2023-04-19T10:14:22.449Z,100413.96
2023-04-19T10:16:50.770Z,100414.80
2023-04-19T10:19:22.056Z,100418.17
2023-04-19T10:21:51.730Z,100421.91
2023-04-19T10:24:21.651Z,100426.44
2023-04-19T10:27:13.007Z,100426.20
2023-04-19T10:30:07.498Z,100427.60
2023-04-19T10:32:41.177Z,100428.87
2023-04-19T10:35:19.487Z,100431.48
2023-04-19T10:38:12.952Z,100432.77
2023-04-19T10:41:02.094Z,100432.61
2023-04-19T10:43:34.733Z,100435.89
2023-04-19T10:46:32.056Z,100435.31
2023-04-19T10:49:01.562Z,100435.05
2023-04-19T10:51:33.984Z,100432.45
2023-04-19T10:54:04.002Z,100433.21
2023-04-19T10:56:34.972Z,100433.19
2023-04-19T10:59:10.598Z,100433.80
2023-04-19T11:01:43.388Z,100432.48
2023-04-19T11:04:55.355Z,100433.50
2023-04-19T11:07:24.926Z,100431.00
2023-04-19T11:09:53.053Z,100430.64
2023-04-19T11:12:21.934Z,100431.27
2023-04-19T11:14:54.782Z,100430.41
2023-04-19T11:17:28.613Z,100428.95
2023-04-19T11:20:07.177Z,100428.39
2023-04-19T11:22:37.654Z,100427.88
2023-04-19T11:25:14.320Z,100432.34
2023-04-19T11:27:44.410Z,100432.98
2023-04-19T11:30:16.681Z,100433.45
2023-04-19T11:32:46.941Z,100432.14
2023-04-19T11:35:18.294Z,100428.88
2023-04-19T11:37:46.269Z,100421.99
2023-04-19T11:40:19.286Z,100420.78
2023-04-19T11:42:53.596Z,100418.34
2023-04-19T11:45:40.377Z,100421.02
2023-04-19T11:48:15.837Z,100417.67
2023-04-19T11:50:45.409Z,100419.16
2023-04-19T11:53:21.928Z,100420.88
2023-04-19T11:55:52.452Z,100418.67
2023-04-19T11:58:29.793Z,100421.16
2023-04-19T12:01:05.024Z,100423.98
2023-04-19T12:03:34.602Z,100425.45
2023-04-19T12:06:04.375Z,100421.11
2023-04-19T12:08:39.705Z,100424.42
2023-04-19T12:11:07.784Z,100429.45
2023-04-19T12:13:36.680Z,100428.15
2023-04-19T12:16:05.154Z,100429.36
2023-04-19T12:18:51.740Z,100436.99
2023-04-19T12:21:28.113Z,100440.51
2023-04-19T12:23:57.556Z,100443.00
2023-04-19T12:26:28.427Z,100442.11
2023-04-19T12:28:57.835Z,100441.66
2023-04-19T12:31:26.804Z,100441.90
2023-04-19T12:33:54.716Z,100445.86
2023-04-19T12:36:22.731Z,100443.59
2023-04-19T12:38:50.552Z,100445.48
2023-04-19T12:41:18.328Z,100444.08
2023-04-19T12:43:46.184Z,100443.71
2023-04-19T12:46:14.003Z,100444.34
2023-04-19T12:48:41.847Z,100446.36
2023-04-19T12:51:09.779Z,100446.40
2023-04-19T12:53:37.620Z,100448.70
2023-04-19T12:56:07.697Z,100448.05
2023-04-19T12:58:35.751Z,100446.05
2023-04-19T13:01:03.659Z,100443.33
2023-04-19T13:03:33.371Z,100440.88
2023-04-19T13:06:01.616Z,100443.56
2023-04-19T13:08:44.202Z,100442.57
2023-04-19T13:11:15.532Z,100439.06
2023-04-19T13:13:43.433Z,100436.50
2023-04-19T13:16:11.592Z,100432.34
2023-04-19T13:18:39.522Z,100428.24
2023-04-19T13:21:08.509Z,100426.91
2023-04-19T13:23:36.789Z,100426.98
2023-04-19T13:26:05.061Z,100428.98
2023-04-19T13:28:35.820Z,100429.34
2023-04-19T13:31:06.091Z,100431.12
2023-04-19T13:33:34.134Z,100432.89
2023-04-19T13:36:02.296Z,100438.19
2023-04-19T13:38:30.269Z,100436.23
2023-04-19T13:40:59.802Z,100439.08
2023-04-19T13:43:27.694Z,100439.74
2023-04-19T13:45:55.662Z,100439.41
2023-04-19T13:48:23.464Z,100440.33
2023-04-19T13:50:52.706Z,100442.77
2023-04-19T13:53:20.841Z,100437.59
2023-04-19T13:55:48.886Z,100438.34
2023-04-19T13:58:16.741Z,100436.25
2023-04-19T14:00:45.781Z,100436.84
2023-04-19T14:03:14.327Z,100432.65
2023-04-19T14:05:43.045Z,100430.80
2023-04-19T14:08:11.080Z,100419.63
2023-04-19T14:10:40.316Z,100420.25
2023-04-19T14:13:08.098Z,100420.65
2023-04-19T14:15:36.254Z,100423.28
2023-04-19T14:18:04.347Z,100416.77
2023-04-19T14:20:32.549Z,100416.35
2023-04-19T14:23:01.013Z,100416.70
2023-04-19T14:25:28.842Z,100416.45
2023-04-19T14:27:56.840Z,100416.54
2023-04-19T14:30:26.348Z,100412.42
2023-04-19T14:32:54.548Z,100408.77
2023-04-19T14:35:22.519Z,100412.45
2023-04-19T14:37:50.428Z,100409.32
2023-04-19T14:40:20.086Z,100409.49
2023-04-19T14:42:48.303Z,100410.77
2023-04-19T14:45:16.078Z,100411.06
2023-04-19T14:47:43.976Z,100416.42
2023-04-19T14:50:12.015Z,100413.69
2023-04-19T14:52:39.909Z,100413.44
2023-04-19T14:55:08.964Z,100414.42
2023-04-19T14:57:36.951Z,100411.95
2023-04-19T15:00:05.718Z,100414.63
2023-04-19T15:02:33.722Z,100416.74
2023-04-19T15:05:02.237Z,100418.23
2023-04-19T15:07:30.667Z,100416.67
2023-04-19T15:09:59.142Z,100419.83
2023-04-19T15:12:27.023Z,100421.19
2023-04-19T15:14:54.868Z,100425.61
2023-04-19T15:17:22.720Z,100431.69
2023-04-19T15:19:50.732Z,100436.73
2023-04-19T15:22:18.548Z,100450.04
2023-04-19T15:24:46.663Z,100469.02
2023-04-19T15:27:14.730Z,100476.73
2023-04-19T15:29:42.860Z,100481.13
2023-04-19T15:32:10.671Z,100477.20
2023-04-19T15:34:38.502Z,100478.35
2023-04-19T15:37:06.734Z,100476.38
2023-04-19T15:39:34.793Z,100478.66
2023-04-19T15:42:04.870Z,100477.04
2023-04-19T15:44:33.397Z,100480.91
2023-04-19T15:47:01.573Z,100487.20
2023-04-19T15:49:31.101Z,100486.59
2023-04-19T15:51:58.967Z,100483.52
2023-04-19T15:54:27.288Z,100475.50
2023-04-19T15:56:56.198Z,100473.33
2023-04-19T15:59:24.568Z,100476.58
2023-04-19T16:01:52.498Z,100481.67
2023-04-19T16:04:20.771Z,100482.19
2023-04-19T16:06:48.882Z,100479.70
2023-04-19T16:09:16.922Z,100481.84
2023-04-19T16:11:45.111Z,100478.49
2023-04-19T16:14:13.071Z,100483.33
2023-04-19T16:16:41.293Z,100486.43
2023-04-19T16:19:09.561Z,100489.20
2023-04-19T16:21:37.503Z,100487.60
2023-04-19T16:24:06.057Z,100487.48
2023-04-19T16:26:34.015Z,100489.35
2023-04-19T16:29:01.751Z,100489.24
2023-04-19T16:31:29.680Z,100488.34
2023-04-19T16:33:57.755Z,100489.33
2023-04-19T16:36:26.042Z,100490.14
2023-04-19T16:38:53.992Z,100491.14
2023-04-19T16:41:22.067Z,100496.02
2023-04-19T16:43:49.990Z,100494.46
2023-04-19T16:46:17.973Z,100499.41
2023-04-19T16:48:46.089Z,100500.63
2023-04-19T16:51:14.148Z,100500.98
2023-04-19T16:53:43.008Z,100505.52
2023-04-19T16:56:11.932Z,100502.86
2023-04-19T16:58:40.199Z,100503.70
2023-04-19T17:01:09.173Z,100507.35
2023-04-19T17:03:37.325Z,100507.96
2023-04-19T17:06:06.381Z,100508.45
2023-04-19T17:08:34.398Z,100512.77
2023-04-19T17:11:02.258Z,100516.48
2023-04-19T17:13:30.149Z,100518.70
2023-04-19T17:15:58.428Z,100522.17
2023-04-19T17:18:26.485Z,100523.70
2023-04-19T17:20:54.796Z,100525.55
2023-04-19T17:23:22.875Z,100530.75
2023-04-19T17:25:50.724Z,100536.98
2023-04-19T17:28:18.551Z,100536.88
2023-04-19T17:30:46.394Z,100540.58
2023-04-19T17:33:14.279Z,100536.51
2023-04-19T17:35:42.298Z,100535.35
2023-04-19T17:38:11.623Z,100541.36
2023-04-19T17:40:39.550Z,100544.95
2023-04-19T17:43:07.393Z,100542.80
2023-04-19T17:45:35.937Z,100546.95
2023-04-19T17:48:04.067Z,100550.09
2023-04-19T17:50:32.218Z,100555.33
2023-04-19T17:53:00.284Z,100555.48
2023-04-19T17:55:28.401Z,100561.05
2023-04-19T17:57:56.889Z,100558.11
2023-04-19T18:00:25.928Z,100561.01
2023-04-19T18:02:53.879Z,100564.18
2023-04-19T18:05:21.990Z,100565.83
2023-04-19T18:07:49.914Z,100569.52
2023-04-19T18:10:17.745Z,100571.41
2023-04-19T18:12:45.571Z,100572.81
2023-04-19T18:15:13.408Z,100570.05
2023-04-19T18:17:41.583Z,100576.55
2023-04-19T18:20:12.447Z,100573.00
2023-04-19T18:22:42.432Z,100577.36
2023-04-19T18:25:10.355Z,100577.02
2023-04-19T18:27:38.319Z,100579.80
2023-04-19T18:30:07.916Z,100582.44
2023-04-19T18:32:35.917Z,100585.36
2023-04-19T18:35:04.852Z,100583.55
2023-04-19T18:37:32.708Z,100585.06
2023-04-19T18:40:01.050Z,100585.27
2023-04-19T18:42:29.233Z,100584.95
2023-04-19T18:44:57.501Z,100582.74
2023-04-19T18:47:26.853Z,100585.74
2023-04-19T18:52:26.214Z,100587.05
2023-04-19T18:54:56.346Z,100588.00
2023-04-19T18:57:27.448Z,100589.23
2023-04-19T18:59:57.033Z,100589.06
2023-04-19T19:02:27.040Z,100588.02
2023-04-19T19:05:01.178Z,100588.20
2023-04-19T19:10:05.822Z,100591.10
2023-04-19T19:12:42.940Z,100591.70
2023-04-19T19:15:10.981Z,100588.33
2023-04-19T19:17:38.918Z,100589.08
2023-04-19T19:20:07.938Z,100588.23
2023-04-19T19:22:35.953Z,100590.02
2023-04-19T19:25:04.357Z,100592.17
2023-04-19T19:27:32.179Z,100595.11
2023-04-19T19:30:00.819Z,100594.59
2023-04-19T19:32:32.669Z,100595.98
2023-04-19T19:35:05.599Z,100595.66
2023-04-19T19:37:36.951Z,100597.54
2023-04-19T19:40:07.231Z,100598.20
2023-04-19T19:42:35.595Z,100595.80
2023-04-19T19:45:04.381Z,100599.06
2023-04-19T19:47:35.739Z,100605.63
2023-04-19T19:50:50.521Z,100613.62
2023-04-19T19:52:53.968Z,100612.02
2023-04-19T19:55:22.166Z,100611.42
2023-04-19T20:02:56.171Z,100618.60
2023-04-19T20:05:25.260Z,100620.51
2023-04-19T20:08:10.175Z,100620.67
2023-04-19T20:10:40.665Z,100617.06
2023-04-19T20:13:08.750Z,100616.88
2023-04-19T20:15:37.821Z,100613.83
2023-04-19T20:18:06.007Z,100616.09
2023-04-19T20:20:35.845Z,100607.98
2023-04-19T20:23:03.836Z,100606.47
2023-04-19T20:25:32.817Z,100601.81
2023-04-19T20:28:02.142Z,100601.30
2023-04-19T20:30:30.378Z,100592.67
2023-04-19T20:32:58.311Z,100595.63
2023-04-19T20:35:27.784Z,100592.05
2023-04-19T20:38:02.318Z,100594.69
2023-04-19T20:40:32.085Z,100602.13
2023-04-19T20:43:00.152Z,100607.02
2023-04-19T20:45:28.171Z,100603.43
2023-04-19T20:47:58.739Z,100609.27
2023-04-19T20:50:26.776Z,100610.27
2023-04-19T20:52:54.903Z,100616.68
2023-04-19T20:55:22.844Z,100616.78
2023-04-19T20:57:51.020Z,100621.44
2023-04-19T21:00:19.411Z,100621.44
2023-04-19T21:02:47.495Z,100618.69
2023-04-19T21:05:15.475Z,100621.80
2023-04-19T21:07:43.805Z,100621.11
2023-04-19T21:10:11.776Z,100623.02
2023-04-19T21:12:39.760Z,100624.06
2023-04-19T21:15:08.845Z,100623.55
2023-04-19T21:17:36.756Z,100623.73
2023-04-19T21:20:12.043Z,100624.79
2023-04-19T21:22:42.094Z,100621.86
2023-04-19T21:25:14.763Z,100619.63
2023-04-19T21:27:42.750Z,100617.73
2023-04-19T21:30:11.805Z,100615.84
2023-04-19T21:32:39.728Z,100616.38
2023-04-19T21:35:08.477Z,100616.91
2023-04-19T21:37:37.893Z,100616.30
2023-04-19T21:40:07.300Z,100619.27
2023-04-19T21:42:36.172Z,100617.00
2023-04-19T21:45:04.948Z,100621.31
2023-04-19T21:47:32.792Z,100624.98
2023-04-19T21:50:00.786Z,100624.45
2023-04-19T21:52:28.893Z,100626.24
2023-04-19T21:54:56.841Z,100625.58
2023-04-19T21:57:27.271Z,100626.98
2023-04-19T21:59:55.416Z,100632.23
2023-04-19T22:02:23.751Z,100628.66
2023-04-19T22:04:53.969Z,100630.23
2023-04-19T22:07:24.134Z,100629.27
2023-04-19T22:09:52.671Z,100631.19
2023-04-19T22:12:20.602Z,100628.79
2023-04-19T22:14:48.680Z,100630.50
2023-04-19T22:17:18.821Z,100628.42
2023-04-19T22:19:48.559Z,100629.29
2023-04-19T22:22:16.407Z,100630.89
2023-04-19T22:24:56.138Z,100632.49
2023-04-19T22:27:25.847Z,100629.42
2023-04-19T22:29:54.046Z,100630.02
2023-04-19T22:32:22.329Z,100628.54
2023-04-19T22:34:50.735Z,100625.98
2023-04-19T22:37:18.524Z,100626.24
2023-04-19T22:39:46.388Z,100621.98
2023-04-19T22:42:14.213Z,100624.63
2023-04-19T22:44:42.219Z,100625.73
2023-04-19T22:47:11.944Z,100621.61
2023-04-19T22:49:43.219Z,100626.80
2023-04-19T22:52:12.155Z,100624.21
2023-04-19T22:54:39.928Z,100625.90
2023-04-19T22:57:07.658Z,100626.56
2023-04-19T22:59:35.552Z,100625.65
2023-04-19T23:02:03.535Z,100621.08
2023-04-19T23:04:35.497Z,100624.77
2023-04-19T23:07:04.282Z,100623.10
2023-04-19T23:09:32.224Z,100627.30
2023-04-19T23:12:00.870Z,100619.08
2023-04-19T23:14:29.413Z,100622.99
2023-04-19T23:16:57.640Z,100624.26
2023-04-19T23:19:25.540Z,100620.88
2023-04-19T23:21:53.604Z,100623.23
2023-04-19T23:24:21.503Z,100627.70
2023-04-19T23:26:49.355Z,100624.03
2023-04-19T23:29:17.560Z,100626.52
2023-04-19T23:31:45.861Z,100625.70
2023-04-19T23:34:14.255Z,100625.04
2023-04-19T23:36:42.034Z,100623.14
2023-04-19T23:39:10.025Z,100620.52
2023-04-19T23:41:37.954Z,100618.28
2023-04-19T23:44:06.102Z,100621.88
2023-04-19T23:46:34.152Z,100613.92
2023-04-19T23:49:02.136Z,100618.09
2023-04-19T23:51:29.980Z,100613.71
2023-04-19T23:53:57.821Z,100608.98
2023-04-19T23:56:26.097Z,100609.44
2023-04-19T23:58:53.868Z,100605.25
